createdAt,value
2023-03-23T15:58:54.878Z,6.22
2023-03-23T16:01:28.546Z,5.78
2023-03-23T16:04:10.397Z,6.28
2023-03-23T16:06:44.733Z,6.90
2023-03-23T16:09:21.906Z,6.35
2023-03-23T16:11:52.289Z,6.70
2023-03-23T16:14:21.185Z,6.62
2023-03-23T16:16:53.177Z,6.47
2023-03-23T16:19:31.198Z,6.42
2023-03-23T16:22:00.209Z,6.85
2023-03-23T16:24:28.873Z,6.20
2023-03-23T16:26:57.574Z,6.97
2023-03-23T16:32:00.359Z,6.87
2023-03-23T16:34:50.103Z,8.00
2023-03-23T16:37:20.938Z,7.80
2023-03-23T16:39:51.640Z,7.95
2023-03-23T16:42:24.806Z,7.10
2023-03-23T16:45:18.189Z,7.60
2023-03-23T16:47:47.472Z,7.35
2023-03-23T16:50:21.856Z,7.20
2023-03-23T16:52:50.746Z,7.40
2023-03-23T16:55:21.388Z,7.12
2023-03-23T16:57:54.155Z,10.43
2023-03-23T17:00:23.441Z,9.00
2023-03-23T17:02:53.894Z,9.00
2023-03-23T17:05:25.083Z,8.80
2023-03-23T17:07:58.950Z,9.35
2023-03-23T17:10:33.123Z,7.70
2023-03-23T17:13:02.239Z,8.78
2023-03-23T17:15:31.104Z,8.70
2023-03-23T17:17:59.972Z,9.15
2023-03-23T17:20:28.726Z,8.08
2023-03-23T17:22:57.529Z,8.85
2023-03-23T17:25:32.702Z,11.05
2023-03-23T17:28:05.399Z,10.15
2023-03-23T17:30:32.740Z,11.33
2023-03-23T17:33:01.542Z,10.10
2023-03-23T17:35:30.677Z,19.70
2023-03-23T17:37:59.858Z,10.80
2023-03-23T17:40:30.059Z,15.72
2023-03-23T17:42:58.806Z,10.20
2023-03-23T17:45:27.559Z,8.33
2023-03-23T17:47:58.103Z,10.85
2023-03-23T17:50:27.069Z,10.68
2023-03-23T17:52:57.177Z,10.10
2023-03-23T17:55:26.005Z,13.00
2023-03-23T17:57:56.378Z,19.25
2023-03-23T18:00:26.718Z,59.53
2023-03-23T18:02:56.769Z,39.23
2023-03-23T18:05:29.678Z,13.65
2023-03-23T18:07:58.808Z,37.55
2023-03-23T18:10:27.647Z,32.70
2023-03-23T18:12:56.877Z,38.58
2023-03-23T18:15:28.191Z,24.55
2023-03-23T18:17:59.724Z,42.40
2023-03-23T18:20:31.413Z,32.58
2023-03-23T18:23:05.526Z,21.07
2023-03-23T18:25:46.143Z,18.05
2023-03-23T18:28:29.649Z,11.75
2023-03-23T18:31:12.230Z,12.13
2023-03-23T18:36:40.941Z,12.30
2023-03-23T18:39:17.619Z,13.38
2023-03-23T18:41:44.056Z,12.60
2023-03-23T18:44:16.716Z,15.03
2023-03-23T18:46:54.699Z,10.27
2023-03-23T18:49:34.996Z,11.10
2023-03-23T18:52:04.706Z,10.35
2023-03-23T18:54:54.674Z,10.10
2023-03-23T18:57:10.049Z,9.43
2023-03-23T18:59:45.711Z,14.07
2023-03-23T19:02:25.319Z,32.57
2023-03-23T19:05:02.313Z,40.60
2023-03-23T19:07:37.922Z,23.55
2023-03-23T19:12:57.698Z,14.70
2023-03-23T19:15:26.413Z,16.40
2023-03-23T19:17:58.144Z,14.80
2023-03-23T19:20:54.920Z,11.87
2023-03-23T19:22:57.945Z,14.28
2023-03-23T19:25:29.757Z,19.40
2023-03-23T19:28:45.423Z,21.65
2023-03-23T19:30:40.888Z,22.50
2023-03-23T19:33:14.339Z,20.97
2023-03-23T19:35:49.094Z,19.80
2023-03-23T19:38:23.491Z,18.52
2023-03-23T19:41:03.472Z,16.90
2023-03-23T19:43:42.096Z,19.47
2023-03-23T19:46:43.184Z,31.77
2023-03-23T19:49:22.146Z,18.43
2023-03-23T19:54:58.728Z,19.00
2023-03-23T19:57:30.743Z,27.15
2023-03-23T20:00:06.634Z,18.80
2023-03-23T20:02:46.514Z,21.10
2023-03-23T20:05:18.834Z,19.70
2023-03-23T20:08:02.709Z,19.50
2023-03-23T20:10:42.534Z,19.27
2023-03-23T20:13:14.403Z,17.30
2023-03-23T20:15:43.889Z,15.00
2023-03-23T20:18:16.948Z,14.93
2023-03-23T20:20:50.003Z,13.73
2023-03-23T20:23:18.690Z,16.60
2023-03-23T20:25:46.951Z,15.27
2023-03-23T20:28:16.669Z,14.87
2023-03-23T20:30:49.335Z,14.63
2023-03-23T20:33:25.388Z,13.70
2023-03-23T20:35:58.402Z,16.10
2023-03-23T20:38:29.693Z,14.33
2023-03-23T20:41:06.489Z,14.20
2023-03-23T20:43:38.465Z,14.10
2023-03-23T20:46:17.530Z,15.07
2023-03-23T20:48:48.259Z,13.13
2023-03-23T20:51:22.095Z,16.60
2023-03-23T20:56:51.540Z,14.10
2023-03-23T21:01:01.223Z,12.60
2023-03-23T21:02:33.471Z,15.07
2023-03-23T21:05:06.017Z,12.00
2023-03-23T21:07:40.989Z,23.00
2023-03-23T21:10:28.427Z,13.80
2023-03-23T21:12:57.349Z,13.03
2023-03-23T21:15:29.489Z,12.97
2023-03-23T21:18:08.800Z,12.40
2023-03-23T21:20:49.882Z,13.33
2023-03-23T21:23:43.144Z,11.87
2023-03-23T21:29:14.143Z,14.47
2023-03-23T21:31:46.143Z,13.60
2023-03-23T21:34:23.390Z,15.43
2023-03-23T21:36:55.628Z,13.47
2023-03-23T21:39:29.913Z,15.03
2023-03-23T21:42:50.900Z,13.67
2023-03-23T21:44:51.218Z,14.43
2023-03-23T21:47:36.082Z,13.87
2023-03-23T21:50:07.410Z,14.83
2023-03-23T21:52:38.206Z,12.90
2023-03-23T21:55:11.921Z,12.60
2023-03-23T21:57:45.102Z,14.70
2023-03-23T22:00:21.529Z,13.33
2023-03-23T22:02:56.116Z,13.17
2023-03-23T22:05:25.007Z,12.67
2023-03-23T22:07:54.387Z,12.80
2023-03-23T22:10:23.399Z,13.07
2023-03-23T22:12:54.992Z,12.90
2023-03-23T22:15:24.570Z,11.80
2023-03-23T22:17:53.356Z,12.20
2023-03-23T22:20:22.213Z,11.87
2023-03-23T22:22:54.470Z,12.90
2023-03-23T22:25:24.393Z,12.50
2023-03-23T22:27:53.157Z,12.37
2023-03-23T22:30:21.957Z,12.10
2023-03-23T22:32:50.918Z,12.90
2023-03-23T22:35:19.787Z,11.67
2023-03-23T22:37:48.772Z,11.77
2023-03-23T22:40:21.432Z,12.97
2023-03-23T22:43:01.052Z,11.90
2023-03-23T22:45:34.455Z,12.43
2023-03-23T22:48:06.647Z,12.77
2023-03-23T22:50:35.795Z,11.73
2023-03-23T22:53:05.917Z,12.03
2023-03-23T22:55:34.830Z,12.97
2023-03-23T22:58:05.231Z,12.10
2023-03-23T23:00:38.513Z,13.80
2023-03-23T23:03:08.270Z,11.93
2023-03-23T23:05:40.281Z,12.60
2023-03-23T23:08:14.158Z,12.50
2023-03-23T23:10:46.374Z,11.87
2023-03-23T23:13:15.794Z,11.97
2023-03-23T23:15:47.456Z,12.83
2023-03-23T23:18:20.420Z,11.87
2023-03-23T23:20:57.837Z,13.40
2023-03-23T23:23:27.637Z,13.43
2023-03-23T23:26:02.696Z,13.60
2023-03-23T23:28:32.951Z,13.63
2023-03-23T23:31:02.039Z,14.70
2023-03-23T23:33:31.001Z,13.67
2023-03-23T23:35:59.798Z,14.03
2023-03-23T23:38:28.619Z,13.57
2023-03-23T23:40:57.843Z,13.83
2023-03-23T23:43:26.641Z,15.37
2023-03-23T23:45:55.419Z,15.57
2023-03-23T23:48:25.682Z,13.63
2023-03-23T23:50:54.393Z,13.73
2023-03-23T23:53:24.792Z,12.80
2023-03-23T23:55:54.123Z,14.03
2023-03-23T23:58:24.138Z,14.63
